sensor_id;sensor_type;location;lat;lon;timestamp;temperature;humidity
24412;DHT22;12544;46.760;15.942;2023-02-01T00:02:17;3.60;99.50
24412;DHT22;12544;46.760;15.942;2023-02-01T00:04:42;3.30;99.40
24412;DHT22;12544;46.760;15.942;2023-02-01T00:07:08;3.20;99.00
24412;DHT22;12544;46.760;15.942;2023-02-01T00:09:33;3.10;98.80
24412;DHT22;12544;46.760;15.942;2023-02-01T00:11:59;3.20;98.80
24412;DHT22;12544;46.760;15.942;2023-02-01T00:14:27;3.10;98.90
24412;DHT22;12544;46.760;15.942;2023-02-01T00:16:53;3.20;99.10
24412;DHT22;12544;46.760;15.942;2023-02-01T00:19:19;3.30;99.10
24412;DHT22;12544;46.760;15.942;2023-02-01T00:21:44;3.20;99.30
24412;DHT22;12544;46.760;15.942;2023-02-01T00:24:11;3.00;99.10
24412;DHT22;12544;46.760;15.942;2023-02-01T00:26:42;3.00;99.10
24412;DHT22;12544;46.760;15.942;2023-02-01T00:29:16;3.20;99.00
24412;DHT22;12544;46.760;15.942;2023-02-01T00:31:43;3.10;98.90
24412;DHT22;12544;46.760;15.942;2023-02-01T00:34:12;3.10;99.00
24412;DHT22;12544;46.760;15.942;2023-02-01T00:36:38;3.10;98.90
24412;DHT22;12544;46.760;15.942;2023-02-01T00:39:04;3.00;99.00
24412;DHT22;12544;46.760;15.942;2023-02-01T00:41:30;2.90;98.70
24412;DHT22;12544;46.760;15.942;2023-02-01T00:43:55;2.90;98.70
24412;DHT22;12544;46.760;15.942;2023-02-01T00:46:21;3.00;98.40
24412;DHT22;12544;46.760;15.942;2023-02-01T00:48:47;3.10;98.20
24412;DHT22;12544;46.760;15.942;2023-02-01T00:51:15;3.20;98.20
24412;DHT22;12544;46.760;15.942;2023-02-01T00:53:41;3.30;98.10
24412;DHT22;12544;46.760;15.942;2023-02-01T00:56:20;3.30;97.80
24412;DHT22;12544;46.760;15.942;2023-02-01T00:58:46;3.40;98.10
24412;DHT22;12544;46.760;15.942;2023-02-01T01:01:13;3.40;98.00
24412;DHT22;12544;46.760;15.942;2023-02-01T01:03:41;3.40;98.20
24412;DHT22;12544;46.760;15.942;2023-02-01T01:06:10;3.50;98.00
24412;DHT22;12544;46.760;15.942;2023-02-01T01:08:36;3.50;97.60
24412;DHT22;12544;46.760;15.942;2023-02-01T01:11:11;3.40;97.50
24412;DHT22;12544;46.760;15.942;2023-02-01T01:13:37;3.60;97.30
24412;DHT22;12544;46.760;15.942;2023-02-01T01:16:04;3.50;97.70
24412;DHT22;12544;46.760;15.942;2023-02-01T01:18:31;3.60;98.20
24412;DHT22;12544;46.760;15.942;2023-02-01T01:20:57;3.60;98.40
24412;DHT22;12544;46.760;15.942;2023-02-01T01:23:23;3.50;98.90
24412;DHT22;12544;46.760;15.942;2023-02-01T01:26:08;3.30;99.10
24412;DHT22;12544;46.760;15.942;2023-02-01T01:28:35;3.20;99.60
24412;DHT22;12544;46.760;15.942;2023-02-01T01:31:01;3.00;99.90
24412;DHT22;12544;46.760;15.942;2023-02-01T01:33:27;2.90;99.90
24412;DHT22;12544;46.760;15.942;2023-02-01T01:35:52;2.60;99.90
24412;DHT22;12544;46.760;15.942;2023-02-01T01:38:18;2.60;99.90
24412;DHT22;12544;46.760;15.942;2023-02-01T01:40:47;2.50;99.90
24412;DHT22;12544;46.760;15.942;2023-02-01T01:43:16;2.40;99.90
24412;DHT22;12544;46.760;15.942;2023-02-01T01:45:49;2.30;99.90
24412;DHT22;12544;46.760;15.942;2023-02-01T01:48:19;2.30;99.90
24412;DHT22;12544;46.760;15.942;2023-02-01T01:50:54;2.20;99.90
24412;DHT22;12544;46.760;15.942;2023-02-01T01:53:26;1.90;99.90
24412;DHT22;12544;46.760;15.942;2023-02-01T01:55:53;1.90;99.90
24412;DHT22;12544;46.760;15.942;2023-02-01T01:58:22;1.90;99.90
24412;DHT22;12544;46.760;15.942;2023-02-01T02:00:51;1.90;99.90
24412;DHT22;12544;46.760;15.942;2023-02-01T02:03:17;1.90;99.90
24412;DHT22;12544;46.760;15.942;2023-02-01T02:05:45;1.60;99.90
24412;DHT22;12544;46.760;15.942;2023-02-01T02:08:11;1.50;99.90
24412;DHT22;12544;46.760;15.942;2023-02-01T02:10:37;1.40;99.90
24412;DHT22;12544;46.760;15.942;2023-02-01T02:13:22;1.30;99.90
24412;DHT22;12544;46.760;15.942;2023-02-01T02:16:20;1.30;99.90
24412;DHT22;12544;46.760;15.942;2023-02-01T02:39:57;1.40;99.90
24412;DHT22;12544;46.760;15.942;2023-02-01T02:48:20;1.60;99.90
24412;DHT22;12544;46.760;15.942;2023-02-01T02:51:14;1.70;99.90
24412;DHT22;12544;46.760;15.942;2023-02-01T02:54:07;1.80;99.90
24412;DHT22;12544;46.760;15.942;2023-02-01T02:56:56;1.80;99.90
24412;DHT22;12544;46.760;15.942;2023-02-01T02:59:43;1.70;99.90
24412;DHT22;12544;46.760;15.942;2023-02-01T03:02:28;1.70;99.90
24412;DHT22;12544;46.760;15.942;2023-02-01T03:05:13;1.60;99.90
24412;DHT22;12544;46.760;15.942;2023-02-01T03:15:53;1.70;99.90
24412;DHT22;12544;46.760;15.942;2023-02-01T03:21:31;1.60;99.90
24412;DHT22;12544;46.760;15.942;2023-02-01T03:24:05;1.50;99.90
24412;DHT22;12544;46.760;15.942;2023-02-01T03:26:36;1.20;99.90
24412;DHT22;12544;46.760;15.942;2023-02-01T03:29:17;1.10;99.90
24412;DHT22;12544;46.760;15.942;2023-02-01T03:31:44;1.00;99.90
24412;DHT22;12544;46.760;15.942;2023-02-01T03:34:11;1.10;99.90
24412;DHT22;12544;46.760;15.942;2023-02-01T03:36:51;1.10;99.90
24412;DHT22;12544;46.760;15.942;2023-02-01T03:42:38;1.10;99.90
24412;DHT22;12544;46.760;15.942;2023-02-01T03:44:49;1.10;99.90
24412;DHT22;12544;46.760;15.942;2023-02-01T03:47:22;1.10;99.90
24412;DHT22;12544;46.760;15.942;2023-02-01T03:50:21;1.20;99.90
24412;DHT22;12544;46.760;15.942;2023-02-01T03:52:59;1.20;99.90
24412;DHT22;12544;46.760;15.942;2023-02-01T03:55:28;1.00;99.90
24412;DHT22;12544;46.760;15.942;2023-02-01T03:58:05;1.10;99.90
24412;DHT22;12544;46.760;15.942;2023-02-01T04:00:31;1.20;99.90
24412;DHT22;12544;46.760;15.942;2023-02-01T04:02:57;1.00;99.90
24412;DHT22;12544;46.760;15.942;2023-02-01T04:05:23;1.10;99.90
24412;DHT22;12544;46.760;15.942;2023-02-01T04:07:48;1.20;99.90
24412;DHT22;12544;46.760;15.942;2023-02-01T04:10:14;1.20;99.90
24412;DHT22;12544;46.760;15.942;2023-02-01T04:12:40;1.30;99.90
24412;DHT22;12544;46.760;15.942;2023-02-01T04:15:06;1.10;99.90
24412;DHT22;12544;46.760;15.942;2023-02-01T04:17:32;1.20;99.90
24412;DHT22;12544;46.760;15.942;2023-02-01T04:19:58;1.30;99.90
24412;DHT22;12544;46.760;15.942;2023-02-01T04:22:24;1.20;99.90
24412;DHT22;12544;46.760;15.942;2023-02-01T04:24:49;1.20;99.90
24412;DHT22;12544;46.760;15.942;2023-02-01T04:27:15;1.20;99.90
24412;DHT22;12544;46.760;15.942;2023-02-01T04:29:41;1.20;99.90
24412;DHT22;12544;46.760;15.942;2023-02-01T04:32:06;1.20;99.90
24412;DHT22;12544;46.760;15.942;2023-02-01T04:34:32;1.20;99.90
24412;DHT22;12544;46.760;15.942;2023-02-01T04:36:58;1.10;99.90
24412;DHT22;12544;46.760;15.942;2023-02-01T04:39:23;1.10;99.90
24412;DHT22;12544;46.760;15.942;2023-02-01T04:41:49;1.10;99.90
24412;DHT22;12544;46.760;15.942;2023-02-01T04:44:16;0.90;99.90
24412;DHT22;12544;46.760;15.942;2023-02-01T04:46:45;0.70;99.90
24412;DHT22;12544;46.760;15.942;2023-02-01T04:49:11;0.60;99.90
24412;DHT22;12544;46.760;15.942;2023-02-01T04:51:37;0.70;99.90
24412;DHT22;12544;46.760;15.942;2023-02-01T04:54:03;0.70;99.90
24412;DHT22;12544;46.760;15.942;2023-02-01T04:56:29;0.70;99.90
24412;DHT22;12544;46.760;15.942;2023-02-01T04:58:55;0.70;99.90
24412;DHT22;12544;46.760;15.942;2023-02-01T05:01:21;0.70;99.90
24412;DHT22;12544;46.760;15.942;2023-02-01T05:03:47;0.80;99.90
24412;DHT22;12544;46.760;15.942;2023-02-01T05:06:13;0.70;99.90
24412;DHT22;12544;46.760;15.942;2023-02-01T05:08:39;0.70;99.90
24412;DHT22;12544;46.760;15.942;2023-02-01T05:11:05;0.70;99.90
24412;DHT22;12544;46.760;15.942;2023-02-01T05:13:31;0.60;99.90
24412;DHT22;12544;46.760;15.942;2023-02-01T05:16:15;0.60;99.90
24412;DHT22;12544;46.760;15.942;2023-02-01T05:18:41;0.60;99.90
24412;DHT22;12544;46.760;15.942;2023-02-01T05:21:07;0.60;99.90
24412;DHT22;12544;46.760;15.942;2023-02-01T05:23:32;0.60;99.90
24412;DHT22;12544;46.760;15.942;2023-02-01T05:26:18;0.60;99.90
24412;DHT22;12544;46.760;15.942;2023-02-01T05:28:45;0.60;99.90
24412;DHT22;12544;46.760;15.942;2023-02-01T05:31:11;0.40;99.90
24412;DHT22;12544;46.760;15.942;2023-02-01T05:33:37;0.40;99.90
24412;DHT22;12544;46.760;15.942;2023-02-01T05:36:03;0.40;99.90
24412;DHT22;12544;46.760;15.942;2023-02-01T05:38:28;0.20;99.90
24412;DHT22;12544;46.760;15.942;2023-02-01T05:40:55;0.20;99.90
24412;DHT22;12544;46.760;15.942;2023-02-01T05:43:21;0.10;99.90
24412;DHT22;12544;46.760;15.942;2023-02-01T05:45:47;-0.10;99.90
24412;DHT22;12544;46.760;15.942;2023-02-01T05:48:12;-0.10;99.90
24412;DHT22;12544;46.760;15.942;2023-02-01T05:50:38;-0.10;99.90
24412;DHT22;12544;46.760;15.942;2023-02-01T05:53:04;-0.20;99.90
24412;DHT22;12544;46.760;15.942;2023-02-01T05:55:48;-0.10;99.90
24412;DHT22;12544;46.760;15.942;2023-02-01T05:58:13;0.00;99.90
24412;DHT22;12544;46.760;15.942;2023-02-01T06:00:39;0.20;99.90
24412;DHT22;12544;46.760;15.942;2023-02-01T06:03:05;0.40;99.90
24412;DHT22;12544;46.760;15.942;2023-02-01T06:05:31;0.40;99.90
24412;DHT22;12544;46.760;15.942;2023-02-01T06:07:56;0.40;99.90
24412;DHT22;12544;46.760;15.942;2023-02-01T06:10:22;0.30;99.90
24412;DHT22;12544;46.760;15.942;2023-02-01T06:12:48;0.30;99.90
24412;DHT22;12544;46.760;15.942;2023-02-01T06:15:14;0.40;99.90
24412;DHT22;12544;46.760;15.942;2023-02-01T06:17:44;0.40;99.90
24412;DHT22;12544;46.760;15.942;2023-02-01T06:20:12;0.30;99.90
24412;DHT22;12544;46.760;15.942;2023-02-01T06:22:39;0.30;99.90
24412;DHT22;12544;46.760;15.942;2023-02-01T06:25:06;0.30;99.90
24412;DHT22;12544;46.760;15.942;2023-02-01T06:27:33;0.20;99.90
24412;DHT22;12544;46.760;15.942;2023-02-01T06:29:59;0.30;99.90
24412;DHT22;12544;46.760;15.942;2023-02-01T06:32:25;0.30;99.90
24412;DHT22;12544;46.760;15.942;2023-02-01T06:34:50;0.20;99.90
24412;DHT22;12544;46.760;15.942;2023-02-01T06:37:18;0.30;99.90
24412;DHT22;12544;46.760;15.942;2023-02-01T06:39:44;0.40;99.90
24412;DHT22;12544;46.760;15.942;2023-02-01T06:42:10;0.40;99.90
24412;DHT22;12544;46.760;15.942;2023-02-01T06:44:36;0.50;99.90
24412;DHT22;12544;46.760;15.942;2023-02-01T06:47:03;0.60;99.90
24412;DHT22;12544;46.760;15.942;2023-02-01T06:49:37;0.40;99.90
24412;DHT22;12544;46.760;15.942;2023-02-01T06:52:02;0.00;99.90
24412;DHT22;12544;46.760;15.942;2023-02-01T06:54:28;-0.20;99.90
24412;DHT22;12544;46.760;15.942;2023-02-01T06:56:57;-0.30;99.90
24412;DHT22;12544;46.760;15.942;2023-02-01T06:59:23;-0.20;99.90
24412;DHT22;12544;46.760;15.942;2023-02-01T07:01:54;0.00;99.90
24412;DHT22;12544;46.760;15.942;2023-02-01T07:04:19;0.20;99.90
24412;DHT22;12544;46.760;15.942;2023-02-01T07:06:45;0.30;99.90
24412;DHT22;12544;46.760;15.942;2023-02-01T07:09:11;0.40;99.90
24412;DHT22;12544;46.760;15.942;2023-02-01T07:11:37;0.50;99.90
24412;DHT22;12544;46.760;15.942;2023-02-01T07:14:06;0.40;99.90
24412;DHT22;12544;46.760;15.942;2023-02-01T07:16:32;0.40;99.90
24412;DHT22;12544;46.760;15.942;2023-02-01T07:19:10;0.50;99.90
24412;DHT22;12544;46.760;15.942;2023-02-01T07:21:36;0.70;99.90
24412;DHT22;12544;46.760;15.942;2023-02-01T07:24:02;0.60;99.90
24412;DHT22;12544;46.760;15.942;2023-02-01T07:26:27;0.70;99.90
24412;DHT22;12544;46.760;15.942;2023-02-01T07:28:53;0.80;99.90
24412;DHT22;12544;46.760;15.942;2023-02-01T07:31:19;0.80;99.90
24412;DHT22;12544;46.760;15.942;2023-02-01T07:33:49;0.90;99.90
24412;DHT22;12544;46.760;15.942;2023-02-01T07:36:19;1.00;99.90
24412;DHT22;12544;46.760;15.942;2023-02-01T07:38:45;1.10;99.90
24412;DHT22;12544;46.760;15.942;2023-02-01T07:41:12;1.00;99.90
24412;DHT22;12544;46.760;15.942;2023-02-01T07:43:37;0.90;99.90
24412;DHT22;12544;46.760;15.942;2023-02-01T07:46:04;0.90;99.90
24412;DHT22;12544;46.760;15.942;2023-02-01T07:48:31;0.90;99.90
24412;DHT22;12544;46.760;15.942;2023-02-01T07:51:17;1.00;99.90
24412;DHT22;12544;46.760;15.942;2023-02-01T07:53:43;1.10;99.90
24412;DHT22;12544;46.760;15.942;2023-02-01T07:56:11;1.20;99.90
24412;DHT22;12544;46.760;15.942;2023-02-01T07:58:37;1.20;99.90
24412;DHT22;12544;46.760;15.942;2023-02-01T08:01:03;1.40;99.90
24412;DHT22;12544;46.760;15.942;2023-02-01T08:03:48;1.40;99.90
24412;DHT22;12544;46.760;15.942;2023-02-01T08:06:14;1.40;99.90
24412;DHT22;12544;46.760;15.942;2023-02-01T08:08:40;1.50;99.90
24412;DHT22;12544;46.760;15.942;2023-02-01T08:11:06;1.50;99.90
24412;DHT22;12544;46.760;15.942;2023-02-01T08:13:35;1.80;99.90
24412;DHT22;12544;46.760;15.942;2023-02-01T08:16:06;1.90;99.90
24412;DHT22;12544;46.760;15.942;2023-02-01T08:18:34;1.80;99.90
24412;DHT22;12544;46.760;15.942;2023-02-01T08:23:30;2.00;99.90
24412;DHT22;12544;46.760;15.942;2023-02-01T08:26:23;2.10;99.90
24412;DHT22;12544;46.760;15.942;2023-02-01T08:28:52;2.20;99.90
24412;DHT22;12544;46.760;15.942;2023-02-01T08:31:20;2.50;99.90
24412;DHT22;12544;46.760;15.942;2023-02-01T08:33:52;2.50;99.90
24412;DHT22;12544;46.760;15.942;2023-02-01T08:36:31;2.40;99.90
24412;DHT22;12544;46.760;15.942;2023-02-01T08:38:57;2.50;99.90
24412;DHT22;12544;46.760;15.942;2023-02-01T08:41:26;2.50;99.90
24412;DHT22;12544;46.760;15.942;2023-02-01T08:43:52;2.50;99.90
24412;DHT22;12544;46.760;15.942;2023-02-01T08:46:19;2.70;99.90
24412;DHT22;12544;46.760;15.942;2023-02-01T08:48:46;2.70;99.90
24412;DHT22;12544;46.760;15.942;2023-02-01T08:51:13;2.90;99.90
24412;DHT22;12544;46.760;15.942;2023-02-01T08:53:42;3.10;99.90
24412;DHT22;12544;46.760;15.942;2023-02-01T08:56:12;3.10;99.90
24412;DHT22;12544;46.760;15.942;2023-02-01T08:58:38;3.20;99.90
24412;DHT22;12544;46.760;15.942;2023-02-01T09:01:08;3.40;99.90
24412;DHT22;12544;46.760;15.942;2023-02-01T09:03:35;3.50;99.90
24412;DHT22;12544;46.760;15.942;2023-02-01T09:06:04;3.70;99.90
24412;DHT22;12544;46.760;15.942;2023-02-01T09:08:31;4.10;99.90
24412;DHT22;12544;46.760;15.942;2023-02-01T09:11:05;4.30;99.90
24412;DHT22;12544;46.760;15.942;2023-02-01T09:13:31;4.50;99.90
24412;DHT22;12544;46.760;15.942;2023-02-01T09:15:57;4.80;99.90
24412;DHT22;12544;46.760;15.942;2023-02-01T09:18:25;5.00;99.90
24412;DHT22;12544;46.760;15.942;2023-02-01T09:20:50;5.20;99.90
24412;DHT22;12544;46.760;15.942;2023-02-01T09:23:16;5.50;99.90
24412;DHT22;12544;46.760;15.942;2023-02-01T09:25:42;5.80;99.90
24412;DHT22;12544;46.760;15.942;2023-02-01T09:28:08;5.90;99.90
24412;DHT22;12544;46.760;15.942;2023-02-01T09:30:35;5.90;99.90
24412;DHT22;12544;46.760;15.942;2023-02-01T09:33:00;6.00;99.90
24412;DHT22;12544;46.760;15.942;2023-02-01T09:35:26;6.00;99.90
24412;DHT22;12544;46.760;15.942;2023-02-01T09:37:53;6.20;99.90
24412;DHT22;12544;46.760;15.942;2023-02-01T09:40:19;6.30;99.90
24412;DHT22;12544;46.760;15.942;2023-02-01T09:46:02;6.40;99.90
24412;DHT22;12544;46.760;15.942;2023-02-01T09:48:37;6.40;99.90
24412;DHT22;12544;46.760;15.942;2023-02-01T09:51:06;6.40;99.90
24412;DHT22;12544;46.760;15.942;2023-02-01T09:53:41;6.50;99.90
24412;DHT22;12544;46.760;15.942;2023-02-01T09:56:16;6.50;99.90
24412;DHT22;12544;46.760;15.942;2023-02-01T10:01:39;6.70;99.90
24412;DHT22;12544;46.760;15.942;2023-02-01T10:04:08;6.70;99.90
24412;DHT22;12544;46.760;15.942;2023-02-01T10:20:57;6.80;99.90
24412;DHT22;12544;46.760;15.942;2023-02-01T10:26:20;7.00;99.90
24412;DHT22;12544;46.760;15.942;2023-02-01T10:28:57;7.20;99.90
24412;DHT22;12544;46.760;15.942;2023-02-01T10:31:30;7.60;99.90
24412;DHT22;12544;46.760;15.942;2023-02-01T10:33:59;7.80;99.90
24412;DHT22;12544;46.760;15.942;2023-02-01T10:36:32;8.10;99.90
24412;DHT22;12544;46.760;15.942;2023-02-01T10:39:01;8.20;99.90
24412;DHT22;12544;46.760;15.942;2023-02-01T10:41:32;8.40;99.90
24412;DHT22;12544;46.760;15.942;2023-02-01T10:43:59;8.30;99.90
24412;DHT22;12544;46.760;15.942;2023-02-01T10:46:25;8.30;99.90
24412;DHT22;12544;46.760;15.942;2023-02-01T10:48:54;8.30;99.90
24412;DHT22;12544;46.760;15.942;2023-02-01T10:51:21;8.50;99.90
24412;DHT22;12544;46.760;15.942;2023-02-01T10:53:55;8.60;99.90
24412;DHT22;12544;46.760;15.942;2023-02-01T10:56:27;8.90;99.90
24412;DHT22;12544;46.760;15.942;2023-02-01T10:59:00;9.10;99.90
24412;DHT22;12544;46.760;15.942;2023-02-01T11:01:43;9.40;99.10
24412;DHT22;12544;46.760;15.942;2023-02-01T11:04:15;9.60;98.30
24412;DHT22;12544;46.760;15.942;2023-02-01T11:06:43;9.80;99.90
24412;DHT22;12544;46.760;15.942;2023-02-01T11:09:30;10.00;97.50
24412;DHT22;12544;46.760;15.942;2023-02-01T11:11:59;10.20;96.80
24412;DHT22;12544;46.760;15.942;2023-02-01T11:19:47;10.60;97.00
24412;DHT22;12544;46.760;15.942;2023-02-01T11:22:21;10.70;94.40
24412;DHT22;12544;46.760;15.942;2023-02-01T11:24:47;10.80;95.20
24412;DHT22;12544;46.760;15.942;2023-02-01T11:27:16;11.00;94.90
24412;DHT22;12544;46.760;15.942;2023-02-01T11:29:45;11.00;94.90
24412;DHT22;12544;46.760;15.942;2023-02-01T11:32:16;11.00;92.70
24412;DHT22;12544;46.760;15.942;2023-02-01T11:34:49;10.90;94.30
24412;DHT22;12544;46.760;15.942;2023-02-01T11:37:20;10.80;93.60
24412;DHT22;12544;46.760;15.942;2023-02-01T11:40:00;10.60;93.80
24412;DHT22;12544;46.760;15.942;2023-02-01T11:42:28;10.50;95.40
24412;DHT22;12544;46.760;15.942;2023-02-01T11:45:17;10.40;95.00
24412;DHT22;12544;46.760;15.942;2023-02-01T11:47:43;10.30;95.80
24412;DHT22;12544;46.760;15.942;2023-02-01T11:50:21;10.30;96.00
24412;DHT22;12544;46.760;15.942;2023-02-01T11:55:48;10.40;96.90
24412;DHT22;12544;46.760;15.942;2023-02-01T12:01:04;10.50;95.00
24412;DHT22;12544;46.760;15.942;2023-02-01T12:06:51;10.80;94.40
24412;DHT22;12544;46.760;15.942;2023-02-01T12:10:25;10.70;95.20
24412;DHT22;12544;46.760;15.942;2023-02-01T12:20:58;11.30;94.00
24412;DHT22;12544;46.760;15.942;2023-02-01T12:46:20;12.90;91.30
24412;DHT22;12544;46.760;15.942;2023-02-01T12:49:23;13.10;91.40
24412;DHT22;12544;46.760;15.942;2023-02-01T12:51:57;13.20;90.90
24412;DHT22;12544;46.760;15.942;2023-02-01T12:54:38;13.30;91.10
24412;DHT22;12544;46.760;15.942;2023-02-01T12:57:11;13.30;91.70
24412;DHT22;12544;46.760;15.942;2023-02-01T12:59:51;13.30;92.30
24412;DHT22;12544;46.760;15.942;2023-02-01T13:02:30;13.30;91.30
24412;DHT22;12544;46.760;15.942;2023-02-01T13:05:22;13.50;91.90
24412;DHT22;12544;46.760;15.942;2023-02-01T13:08:10;13.60;91.00
24412;DHT22;12544;46.760;15.942;2023-02-01T13:10:42;13.50;91.60
24412;DHT22;12544;46.760;15.942;2023-02-01T13:13:22;13.30;92.40
24412;DHT22;12544;46.760;15.942;2023-02-01T13:16:30;13.20;91.60
24412;DHT22;12544;46.760;15.942;2023-02-01T13:19:05;13.00;92.60
24412;DHT22;12544;46.760;15.942;2023-02-01T13:21:39;13.10;93.00
24412;DHT22;12544;46.760;15.942;2023-02-01T13:24:24;13.20;92.90
24412;DHT22;12544;46.760;15.942;2023-02-01T13:26:54;13.30;92.60
24412;DHT22;12544;46.760;15.942;2023-02-01T13:29:20;13.50;91.40
24412;DHT22;12544;46.760;15.942;2023-02-01T13:37:22;13.90;89.70
24412;DHT22;12544;46.760;15.942;2023-02-01T13:43:00;13.80;84.90
24412;DHT22;12544;46.760;15.942;2023-02-01T13:45:36;13.70;87.30
24412;DHT22;12544;46.760;15.942;2023-02-01T13:48:19;13.80;87.10
24412;DHT22;12544;46.760;15.942;2023-02-01T13:50:51;14.10;85.70
24412;DHT22;12544;46.760;15.942;2023-02-01T13:53:21;14.20;83.70
24412;DHT22;12544;46.760;15.942;2023-02-01T13:58:43;14.70;83.80
24412;DHT22;12544;46.760;15.942;2023-02-01T14:03:48;14.90;78.90
24412;DHT22;12544;46.760;15.942;2023-02-01T14:19:26;14.10;75.70
24412;DHT22;12544;46.760;15.942;2023-02-01T14:21:54;14.20;78.50
24412;DHT22;12544;46.760;15.942;2023-02-01T14:26:56;14.30;73.20
24412;DHT22;12544;46.760;15.942;2023-02-01T14:29:34;14.40;71.50
24412;DHT22;12544;46.760;15.942;2023-02-01T14:32:04;14.40;71.80
24412;DHT22;12544;46.760;15.942;2023-02-01T14:37:35;14.10;63.40
24412;DHT22;12544;46.760;15.942;2023-02-01T14:42:51;13.70;66.00
24412;DHT22;12544;46.760;15.942;2023-02-01T14:58:13;13.90;66.60
24412;DHT22;12544;46.760;15.942;2023-02-01T15:01:16;13.80;67.30
24412;DHT22;12544;46.760;15.942;2023-02-01T15:03:49;13.60;67.20
24412;DHT22;12544;46.760;15.942;2023-02-01T15:09:20;13.30;66.10
24412;DHT22;12544;46.760;15.942;2023-02-01T15:11:53;13.10;66.70
24412;DHT22;12544;46.760;15.942;2023-02-01T15:14:21;12.90;67.10
24412;DHT22;12544;46.760;15.942;2023-02-01T15:16:46;12.70;67.90
24412;DHT22;12544;46.760;15.942;2023-02-01T15:19:22;12.50;68.60
24412;DHT22;12544;46.760;15.942;2023-02-01T15:21:51;12.10;68.20
24412;DHT22;12544;46.760;15.942;2023-02-01T15:24:28;11.80;69.20
24412;DHT22;12544;46.760;15.942;2023-02-01T15:26:56;11.70;70.20
24412;DHT22;12544;46.760;15.942;2023-02-01T15:29:24;11.60;70.20
24412;DHT22;12544;46.760;15.942;2023-02-01T15:31:53;11.60;70.70
24412;DHT22;12544;46.760;15.942;2023-02-01T15:34:19;11.40;70.90
24412;DHT22;12544;46.760;15.942;2023-02-01T15:36:46;11.40;71.90
24412;DHT22;12544;46.760;15.942;2023-02-01T15:39:22;11.20;72.40
24412;DHT22;12544;46.760;15.942;2023-02-01T15:42:08;11.20;72.90
24412;DHT22;12544;46.760;15.942;2023-02-01T15:44:43;11.10;72.40
24412;DHT22;12544;46.760;15.942;2023-02-01T15:47:18;11.00;73.20
24412;DHT22;12544;46.760;15.942;2023-02-01T15:49:49;10.90;72.60
24412;DHT22;12544;46.760;15.942;2023-02-01T15:52:30;10.80;73.70
24412;DHT22;12544;46.760;15.942;2023-02-01T15:55:01;10.70;74.20
24412;DHT22;12544;46.760;15.942;2023-02-01T15:57:38;10.60;74.00
24412;DHT22;12544;46.760;15.942;2023-02-01T16:00:29;10.50;73.90
24412;DHT22;12544;46.760;15.942;2023-02-01T16:03:05;10.30;74.50
24412;DHT22;12544;46.760;15.942;2023-02-01T16:05:57;10.20;75.70
24412;DHT22;12544;46.760;15.942;2023-02-01T16:08:26;10.10;75.70
24412;DHT22;12544;46.760;15.942;2023-02-01T16:10:59;9.90;76.50
24412;DHT22;12544;46.760;15.942;2023-02-01T16:13:25;10.00;76.10
24412;DHT22;12544;46.760;15.942;2023-02-01T16:15:50;10.00;75.90
24412;DHT22;12544;46.760;15.942;2023-02-01T16:18:17;9.90;75.80
24412;DHT22;12544;46.760;15.942;2023-02-01T16:20:43;9.90;75.70
24412;DHT22;12544;46.760;15.942;2023-02-01T16:23:09;9.90;76.00
24412;DHT22;12544;46.760;15.942;2023-02-01T16:25:36;9.80;75.90
24412;DHT22;12544;46.760;15.942;2023-02-01T16:28:01;9.70;76.40
24412;DHT22;12544;46.760;15.942;2023-02-01T16:30:28;9.70;76.80
24412;DHT22;12544;46.760;15.942;2023-02-01T16:33:00;9.60;77.90
24412;DHT22;12544;46.760;15.942;2023-02-01T16:35:35;9.60;78.70
24412;DHT22;12544;46.760;15.942;2023-02-01T16:38:09;9.50;78.20
24412;DHT22;12544;46.760;15.942;2023-02-01T16:40:41;9.50;78.00
24412;DHT22;12544;46.760;15.942;2023-02-01T16:43:22;9.50;78.10
24412;DHT22;12544;46.760;15.942;2023-02-01T16:45:49;9.40;78.20
24412;DHT22;12544;46.760;15.942;2023-02-01T16:51:03;9.20;79.50
24412;DHT22;12544;46.760;15.942;2023-02-01T16:53:31;9.10;79.40
24412;DHT22;12544;46.760;15.942;2023-02-01T16:55:59;9.10;79.30
24412;DHT22;12544;46.760;15.942;2023-02-01T16:58:26;9.00;79.60
24412;DHT22;12544;46.760;15.942;2023-02-01T17:00:54;8.90;79.90
24412;DHT22;12544;46.760;15.942;2023-02-01T17:03:21;8.80;80.50
24412;DHT22;12544;46.760;15.942;2023-02-01T17:05:55;8.80;80.90
24412;DHT22;12544;46.760;15.942;2023-02-01T17:08:31;8.70;80.60
24412;DHT22;12544;46.760;15.942;2023-02-01T17:10:57;8.70;80.70
24412;DHT22;12544;46.760;15.942;2023-02-01T17:13:22;8.60;80.50
24412;DHT22;12544;46.760;15.942;2023-02-01T17:16:15;8.60;80.10
24412;DHT22;12544;46.760;15.942;2023-02-01T17:19:10;8.60;80.40
24412;DHT22;12544;46.760;15.942;2023-02-01T17:21:49;8.60;80.30
24412;DHT22;12544;46.760;15.942;2023-02-01T17:24:19;8.50;80.20
24412;DHT22;12544;46.760;15.942;2023-02-01T17:26:48;8.50;80.60
24412;DHT22;12544;46.760;15.942;2023-02-01T17:29:16;8.40;80.70
24412;DHT22;12544;46.760;15.942;2023-02-01T17:31:49;8.30;81.00
24412;DHT22;12544;46.760;15.942;2023-02-01T17:34:16;8.20;81.40
24412;DHT22;12544;46.760;15.942;2023-02-01T17:36:44;8.10;81.20
24412;DHT22;12544;46.760;15.942;2023-02-01T17:39:11;8.10;81.60
24412;DHT22;12544;46.760;15.942;2023-02-01T17:41:56;8.00;82.30
24412;DHT22;12544;46.760;15.942;2023-02-01T17:44:22;8.00;82.40
24412;DHT22;12544;46.760;15.942;2023-02-01T17:46:47;7.90;82.60
24412;DHT22;12544;46.760;15.942;2023-02-01T17:49:13;7.90;83.00
24412;DHT22;12544;46.760;15.942;2023-02-01T17:51:39;7.80;83.00
24412;DHT22;12544;46.760;15.942;2023-02-01T17:54:11;7.80;83.10
24412;DHT22;12544;46.760;15.942;2023-02-01T17:56:37;7.80;82.70
24412;DHT22;12544;46.760;15.942;2023-02-01T17:59:03;7.80;83.00
24412;DHT22;12544;46.760;15.942;2023-02-01T18:01:28;7.70;83.10
24412;DHT22;12544;46.760;15.942;2023-02-01T18:03:58;7.70;83.20
24412;DHT22;12544;46.760;15.942;2023-02-01T18:06:25;7.60;83.20
24412;DHT22;12544;46.760;15.942;2023-02-01T18:08:52;7.60;83.40
24412;DHT22;12544;46.760;15.942;2023-02-01T18:11:23;7.60;83.40
24412;DHT22;12544;46.760;15.942;2023-02-01T18:13:50;7.50;83.60
24412;DHT22;12544;46.760;15.942;2023-02-01T18:16:30;7.40;83.50
24412;DHT22;12544;46.760;15.942;2023-02-01T18:18:55;7.20;85.00
24412;DHT22;12544;46.760;15.942;2023-02-01T18:21:47;7.10;84.70
24412;DHT22;12544;46.760;15.942;2023-02-01T18:24:14;7.10;84.70
24412;DHT22;12544;46.760;15.942;2023-02-01T18:26:41;7.00;84.50
24412;DHT22;12544;46.760;15.942;2023-02-01T18:29:07;7.00;84.40
24412;DHT22;12544;46.760;15.942;2023-02-01T18:31:34;7.00;84.30
24412;DHT22;12544;46.760;15.942;2023-02-01T18:34:02;7.10;84.40
24412;DHT22;12544;46.760;15.942;2023-02-01T18:36:28;7.00;84.50